Details From GMMZ - Ouarzazate
To GMMX - Menara
Flight Number -
Tags Standard
Created
Modified
Stats Distance 70 nm / 130 km
Max Altitude 0 ft / 0 m
Waypoints 2
Social Downloads 6
Likes 0
Share VATSIM

Download

Looking for another format? Having issues loading an existing format? Contact us
Advertisement - Login to hide

Notes

None

Route

GMMZ GMMX

ID Type Via Altitude Latitude Longitude Leg Dist Tot Dist Heading (true) Name
O GMMZ APT - 0 ft / 0 m 30.94516˚ -6.92344˚ - 0 nm - -
O GMMX APT - 0 ft / 0 m 31.60837˚ -8.05254˚ 70 nm 70 nm 305° / 304° -

Altitude Profile

Advertisement - Login to hide

GMMZ

Details ICAO GMMZ (OZZ)
Name OUARZAZATE
Region Morocco
Timezone Africa/Casablanca (UTC+0.0)
Stats Elevation 3,782 ft / 1,153 m (AMSL)
Location 30.939076° -6.909475°
Runways 1
Magnetic Variation 1.634° W

METAR

GMMZ 230300Z VRB02KT CAVOK 17/M02 Q1015 NOSIG

Decode

TAF

TAF GMMZ 222300Z 2300/2406 VRB02KT 9999 FEW040 TEMPO 2213/2220 16014KT

Decode

Departure Runways

ID Width Length Bearing (true) Bearing (mag) Surface Threshold Offset Overrun Length
12 148 ft / 45 m 9,802 ft / 2,988 m 116.92° 118.55° Asphalt 0 ft / 0 m 66 ft / 20 m
30 148 ft / 45 m 9,802 ft / 2,988 m 296.93° 298.56° Asphalt 0 ft / 0 m 66 ft / 20 m

GMMX

Details ICAO GMMX (RAK)
Name MENARA
Region Morocco
Timezone Africa/Casablanca (UTC+0.0)
Stats Elevation 1,545 ft / 471 m (AMSL)
Location 31.606920° -8.036265°
Runways 1
Magnetic Variation 1.951° W

METAR

GMMX 230330Z 22008KT 9999 SCT026 14/12 Q1015 NOSIG

Decode

TAF

TAF GMMX 222300Z 2300/2406 28008KT 8000 SCT025 SCT100 TEMPO 2321/2323 30014KT BKN025 SCT035TCU 5000 SHRA

Decode

Destination Runways

ID Width Length Bearing (true) Bearing (mag) Surface Threshold Offset Overrun Length
10 148 ft / 45 m 10,169 ft / 3,100 m 95.99° 97.94° Asphalt 918 ft / 280 m 0 ft / 0 m
28 148 ft / 45 m 10,169 ft / 3,100 m 276.00° 277.95° Asphalt 0 ft / 0 m 0 ft / 0 m

Approach Navaids

Runway Type Ident Frequency Range Bearing (true) Bearing (mag) Slope Elevation
10 Localiser MAR 109.70 MHz 18 nm / 33 km 96.03° 97.98° - 1,545 ft / 471 m (AMSL)
10 Glidescope MAR 109.70 MHz 10 nm / 19 km 96.00° 97.95° 3.00° 1,558 ft / 475 m (AMSL)

Popular Alternatives